Nearby METAR Reports

CWGD - Goderich (autob), Ontario, Canada
Distance from station: SW 47km
Updated: 12/14/2017 8:00am

 Wind from E
Wind: E 11 km/h
Temperature: -11°C
Wind Chill: -17°C
Dew Point: -13°C
Humidity: 85%
2017/12/14 13:00 CWGD 141300Z AUTO 08006KT M11/M13 RMK AO1 3PAST HR SOG 14 1032 SLP112 P0001 T11051131 50003
CWLS - Mount Forest(Mar, Ontario, Canada
Distance from station: ESE 53km
Updated: 12/14/2017 8:00am

 Wind from WNW
Wind: WNW 6 km/h
Temperature: -16°C
Dew Point: -18°C
Humidity: 85%
2017/12/14 13:00 CWLS 141300Z AUTO 30003KT M16/M18 RMK AO1 SOG 08 3036 SLP109 T11551178
 
CYVV - Wiarton Air, Ontario, Canada
Distance from station: NNE 75km
Updated: 12/14/2017 7:52am
Few Clouds
Few Clouds
 Wind from NW
Wind: NW 13 km/h
Temperature: -14°C
Wind Chill: -21°C
Dew Point: -16°C
Humidity: 85%
Barometer: 1009.8 hPa
Clouds: Few Clouds
Visibility: 24 km
Cloud details: Few Clouds 762 m
2017/12/14 12:52 CYVV 141252Z 31007KT 280V340 15SM FEW025 M14/M16 A2982 RMK SC1 SLP116
CZEL - Elora Rcs, Ontario, Canada
Distance from station: ESE 93km
Updated: 12/14/2017 8:00am

 Wind from WNW
Wind: WNW 9 km/h
Temperature: -18°C
Wind Chill: -24°C
Dew Point: -20°C
Humidity: 84%
2017/12/14 13:00 CZEL 141300Z AUTO 29005KT M18/M20 RMK AO1 SLP110 T11811196 52038
 
CWCO - Collingwood (aut, Ontario, Canada
Distance from station: ENE 104km
Updated: 12/14/2017 8:00am

 Wind from N
Wind: N 28 km/h, Gust: 39 km/h
Temperature: -11°C
Wind Chill: -21°C
Dew Point: -13°C
Humidity: 85%
2017/12/14 13:00 CWCO 141300Z AUTO 35015G21KT M11/M13 RMK AO1 PK WND 34022/1204 SLP110 T11061126 51035
CYKF - Waterloo Well, Ontario, Canada
Distance from station: SE 107km
Updated: 12/14/2017 8:00am
Clear
Clear
 Wind from WNW
Wind: WNW 13 km/h
Temperature: -16°C
Wind Chill: -23°C
Dew Point: -18°C
Humidity: 85%
Barometer: 1008.8 hPa
Clouds: Clear
Visibility: 14 km
2017/12/14 13:00 CYKF 141300Z AUTO 29007KT 9SM CLR M16/M18 A2979 RMK PRESRR SLP113
 
KP58 - Port Hope, Michigan, USA
Distance from station: W 114km
Updated: 12/14/2017 7:51am

 Wind from NW
Wind: NW 22 km/h, Gust: 35 km/h
Temperature: -8°C
Wind Chill: -16°C
Dew Point: -13°C
Humidity: 68%
Barometer: 1011.2 hPa
2017/12/14 12:51 KP58 141251Z AUTO 31012G19KT M08/M13 A2986 RMK AO1 SLP129 T10781128
CYBN - Borden, Ontario, Canada
Distance from station: E 118km
Updated: 12/14/2017 8:00am
Overcast
Overcast
 Wind from calm
Wind: Calm
Temperature: -17°C
Dew Point: -21°C
Humidity: 71%
Barometer: 1009.5 hPa
Clouds: Overcast
Visibility: 3 km
Cloud details: Overcast 518 m
2017/12/14 13:00 CYBN 141300Z AUTO 00000KT 2SM OVC017 M17/M21 A2981 RMK SLP114
 
CYXU - London Airport, Ontario, Canada
Distance from station: S 123km
Updated: 12/14/2017 8:00am
Mostly cloudy
Mostly cloudy
 Wind from NNW
Wind: NNW 4 km/h
Temperature: -14°C
Dew Point: -16°C
Humidity: 85%
Barometer: 1009.8 hPa
Clouds: Mostly cloudy
Visibility: 24 km
Cloud details: Mostly cloudy 1250 m
2017/12/14 13:00 CYXU 141300Z 33002KT 15SM BKN041 M14/M16 A2982 RMK SC6 SLP119
CXET - Egbert Cs, Ontario, Canada
Distance from station: E 128km
Updated: 12/14/2017 8:00am

 Wind from NNW
Wind: NNW 7 km/h
Temperature: -17°C
Wind Chill: -23°C
Dew Point: -19°C
Humidity: 85%
2017/12/14 13:00 CXET 141300Z AUTO 34004KT M17/M19 RMK AO1 SOG 12 1038 SLP106 T11721193
 
CWMZ - Western Isl (map, Ontario, Canada
Distance from station: NE 129km
Updated: 12/14/2017 7:00am

 Wind from N
Wind: N 26 km/h, Gust: 37 km/h
Temperature: -16°C
Wind Chill: -27°C
Dew Point: -18°C
Humidity: 85%
2017/12/14 12:00 CWMZ 141200Z AUTO 01014G20KT M16/M18 RMK AO1 PK WND 01021/1110 SLP103 T11591177 53028
KBAX - Bad Axe, Michigan, USA
Distance from station: WSW 133km
Updated: 12/14/2017 7:55am
Light snow, Overcast
Light snow, Overcast
 Wind from NW
Wind: NW 15 km/h
Temperature: -11°C
Wind Chill: -18°C
Dew Point: -14°C
Humidity: 79%
Barometer: 1012.2 hPa
Summary: Light Snow
Clouds: Overcast
Visibility: 16 km
Cloud details: Overcast 579 m
2017/12/14 12:55 KBAX 141255Z AUTO 31008KT 10SM -SN OVC019 M11/M14 A2989 RMK AO2 T11151140
 
CWWX - Cove Island (map, Ontario, Canada
Distance from station: NNW 137km
Updated: 12/14/2017 7:00am

 Wind from N
Wind: N 13 km/h
Temperature: -15°C
Wind Chill: -22°C
Dew Point: -16°C
Humidity: 92%
2017/12/14 12:00 CWWX 141200Z AUTO 01007KT M15/M16 RMK AO1 SLP113 T11511164 53027
CYZR - Sarnia Airport, Ontario, Canada
Distance from station: SSW 144km
Updated: 12/14/2017 8:07am
Clear
Clear
 Wind from WNW
Wind: WNW 20 km/h, Gust: 33 km/h
Temperature: -9°C
Wind Chill: -17°C
Dew Point: -11°C
Humidity: 86%
Barometer: 1011.5 hPa
Clouds: Clear
Visibility: 14 km
2017/12/14 13:07 CYZR 141307Z AUTO 30011G18KT 9SM CLR M09/M11 A2987 RMK ICG INTMT SLP129
 
CXHM - Hamilton Rbg Cs, Ontario, Canada
Distance from station: SE 150km
Updated: 10/30/2017 11:00am
NOT Current

 Wind from WSW
Wind: WSW 13 km/h, Gust: 33 km/h
Temperature: 8°C
Wind Chill: 6°C
Dew Point: 3°C
Humidity: 71%
2017/10/30 15:00 CXHM 301500Z AUTO 25007G18KT 08/03 RMK AO1 PK WND 29022/1404 SLP982 T00760027 50010
CYYZ - Toronto/Pearson, Ontario, Canada
Distance from station: ESE 150km
Updated: 12/14/2017 8:00am
Few Clouds
Few Clouds
 Wind from NW
Wind: NW 17 km/h
Temperature: -15°C
Wind Chill: -23°C
Dew Point: -19°C
Humidity: 72%
Barometer: 1009.5 hPa
Clouds: Few Clouds
Visibility: 24 km
Cloud details: Few Clouds 457 m
2017/12/14 13:00 CYYZ 141300Z 32009KT 15SM FEW015 M15/M19 A2981 RMK SC1 SLP108
 
CXBI - Barrie-Oro, Ontario, Canada
Distance from station: ENE 151km
Updated: 12/14/2017 7:00am

 Wind from NNW
Wind: NNW 9 km/h
Temperature: -21°C
Wind Chill: -28°C
Dew Point: -23°C
Humidity: 84%
2017/12/14 12:00 CXBI 141200Z AUTO 34005KT M21/M23 RMK AO1 SOG 22 3034 SLP104 T12091232 50002
CXDI - Delhi Cs (aut), Ontario, Canada
Distance from station: SSE 154km
Updated: 12/14/2017 8:00am

 Wind from WSW
Wind: WSW 2 km/h
Temperature: -19°C
Dew Point: -21°C
Humidity: 84%
2017/12/14 13:00 CXDI 141300Z AUTO 25001KT M19/M21 RMK AO1 SLP117 T11911211 53044
 
CWWB - Burlington Piers, Ontario, Canada
Distance from station: SE 157km
Updated: 12/14/2017 8:00am

 
Temperature: -11°C
Dew Point: -15°C
Humidity: 73%
2017/12/14 13:00 CWWB 141300Z AUTO M11/M15 RMK AO1 SLP115 T11131151 51046
CYHM - Hamilton Airport, Ontario, Canada
Distance from station: SE 157km
Updated: 12/14/2017 8:00am
Few Clouds
Few Clouds
 Wind from W
Wind: W 6 km/h
Temperature: -16°C
Dew Point: -17°C
Humidity: 92%
Barometer: 1009.1 hPa
Clouds: Few Clouds
Visibility: 24 km
Cloud details: Few Clouds 671 m
Few Clouds 1372 m
2017/12/14 13:00 CYHM 141300Z 28003KT 15SM FEW022 FEW045 M16/M17 A2980 RMK CU1SC1 CU TR SC TR SLP111